createdAt,value
2023-05-07T00:03:46.541Z,11.10
2023-05-07T00:07:53.629Z,11.00
2023-05-07T00:11:57.176Z,10.90
2023-05-07T00:16:00.443Z,10.90
2023-05-07T00:20:10.523Z,10.80
2023-05-07T00:24:13.651Z,10.80
2023-05-07T00:28:19.783Z,10.70
2023-05-07T00:32:25.518Z,10.70
2023-05-07T00:36:32.356Z,10.70
2023-05-07T00:40:37.327Z,10.70
2023-05-07T00:44:42.433Z,10.70
2023-05-07T00:48:50.139Z,10.70
2023-05-07T00:52:55.069Z,10.70
2023-05-07T00:56:58.876Z,10.70
2023-05-07T01:01:02.582Z,11.00
2023-05-07T01:05:10.297Z,11.30
2023-05-07T01:09:15.827Z,11.70
2023-05-07T01:13:26.836Z,12.00
2023-05-07T01:17:31.784Z,12.20
2023-05-07T01:21:37.336Z,12.40
2023-05-07T01:25:41.842Z,12.50
2023-05-07T01:29:44.974Z,12.50
2023-05-07T01:33:50.674Z,12.50
2023-05-07T01:37:53.950Z,12.70
2023-05-07T01:41:58.825Z,12.90
2023-05-07T01:46:04.445Z,13.10
2023-05-07T01:50:15.315Z,13.20
2023-05-07T01:54:22.020Z,13.30
2023-05-07T01:59:26.292Z,13.30
2023-05-07T02:03:46.764Z,13.40
2023-05-07T02:07:58.545Z,13.40
2023-05-07T02:12:04.466Z,13.50
2023-05-07T02:16:17.418Z,13.40
2023-05-07T02:20:24.028Z,13.40
2023-05-07T02:24:29.222Z,13.40
2023-05-07T02:28:37.187Z,13.40
2023-05-07T02:32:43.831Z,13.30
2023-05-07T02:36:49.196Z,13.30
2023-05-07T02:40:58.668Z,13.20
2023-05-07T02:45:08.653Z,13.10
2023-05-07T02:49:13.493Z,13.10
2023-05-07T02:53:18.153Z,13.00
2023-05-07T02:57:21.171Z,12.90
2023-05-07T03:01:25.898Z,12.90
2023-05-07T03:05:29.128Z,12.80
2023-05-07T03:09:33.616Z,12.70
2023-05-07T03:13:36.622Z,12.70
2023-05-07T03:17:39.945Z,12.60
2023-05-07T03:21:44.518Z,12.60
2023-05-07T03:25:51.984Z,12.60
2023-05-07T03:29:55.537Z,12.50
2023-05-07T03:33:59.464Z,12.50
2023-05-07T03:38:04.098Z,12.40
2023-05-07T03:42:08.496Z,12.40
2023-05-07T03:46:14.374Z,12.40
2023-05-07T03:50:17.556Z,12.40
2023-05-07T03:54:20.547Z,12.50
2023-05-07T03:58:29.253Z,12.50
2023-05-07T04:02:34.613Z,12.50
2023-05-07T04:06:37.990Z,12.50
2023-05-07T04:10:44.882Z,12.50
2023-05-07T04:14:49.287Z,12.50
2023-05-07T04:18:54.073Z,12.60
2023-05-07T04:22:57.185Z,12.70
2023-05-07T04:27:02.761Z,12.80
2023-05-07T04:31:07.685Z,12.90
2023-05-07T04:35:13.228Z,13.00
2023-05-07T04:39:16.284Z,13.10
2023-05-07T04:43:21.836Z,13.20
2023-05-07T04:47:26.271Z,13.30
2023-05-07T04:51:33.852Z,13.50
2023-05-07T04:55:36.854Z,13.70
2023-05-07T04:59:40.003Z,13.80
2023-05-07T05:03:46.822Z,14.10
2023-05-07T05:07:49.916Z,14.30
2023-05-07T05:11:52.974Z,14.50
2023-05-07T05:15:58.664Z,14.60
2023-05-07T05:20:03.327Z,14.60
2023-05-07T05:24:11.581Z,14.70
2023-05-07T05:28:17.637Z,14.90
2023-05-07T05:32:21.655Z,15.10
2023-05-07T05:36:27.413Z,15.10
2023-05-07T05:40:32.515Z,15.10
2023-05-07T05:44:36.781Z,15.10
2023-05-07T05:48:40.129Z,15.00
2023-05-07T05:52:45.793Z,15.00
2023-05-07T05:56:48.937Z,15.10
2023-05-07T06:00:57.327Z,15.20
2023-05-07T06:05:00.404Z,15.20
2023-05-07T06:09:10.896Z,15.40
2023-05-07T06:13:13.999Z,15.70
2023-05-07T06:17:21.632Z,15.80
2023-05-07T06:21:25.297Z,16.10
2023-05-07T06:25:29.726Z,16.40
2023-05-07T06:29:35.316Z,16.50
2023-05-07T06:33:40.980Z,16.60
2023-05-07T06:37:44.425Z,16.50
2023-05-07T06:41:48.866Z,16.70
2023-05-07T06:45:55.760Z,16.90
2023-05-07T06:49:59.910Z,17.30
2023-05-07T06:54:02.973Z,17.70
2023-05-07T06:58:15.048Z,17.50
2023-05-07T07:02:20.703Z,17.50
2023-05-07T07:06:24.067Z,17.90
2023-05-07T07:10:27.459Z,18.30
2023-05-07T07:14:33.446Z,18.70
2023-05-07T07:18:37.373Z,18.80
2023-05-07T07:22:40.398Z,19.50
2023-05-07T07:26:43.821Z,19.70
2023-05-07T07:30:48.483Z,19.20
2023-05-07T07:34:51.938Z,19.10
2023-05-07T07:38:55.903Z,19.20
2023-05-07T07:42:59.914Z,19.20
2023-05-07T07:47:08.935Z,19.00
2023-05-07T07:51:14.869Z,18.80
2023-05-07T07:55:22.231Z,18.70
2023-05-07T07:59:25.399Z,19.70
2023-05-07T08:03:33.054Z,20.40
2023-05-07T08:07:36.163Z,20.90
2023-05-07T08:11:39.388Z,21.60
2023-05-07T08:15:42.683Z,22.10
2023-05-07T08:19:52.566Z,22.60
2023-05-07T08:23:55.585Z,23.50
2023-05-07T08:27:58.897Z,24.10
2023-05-07T08:32:02.327Z,24.50
2023-05-07T08:36:07.739Z,25.30
2023-05-07T08:40:14.927Z,24.90
2023-05-07T08:44:22.018Z,25.00
2023-05-07T08:48:30.543Z,24.40
2023-05-07T08:52:37.964Z,24.10
2023-05-07T08:56:44.386Z,24.10
2023-05-07T09:00:51.389Z,24.40
2023-05-07T09:04:56.445Z,24.50
2023-05-07T09:09:02.269Z,24.20
2023-05-07T09:13:06.405Z,24.10
2023-05-07T09:17:15.410Z,24.50
2023-05-07T09:21:23.353Z,25.80
2023-05-07T09:25:32.447Z,25.80
2023-05-07T09:29:36.516Z,25.60
2023-05-07T09:33:39.976Z,25.30
2023-05-07T09:37:43.927Z,25.50
2023-05-07T09:41:50.467Z,26.30
2023-05-07T09:45:53.766Z,27.10
2023-05-07T09:50:02.837Z,28.20
2023-05-07T09:54:09.905Z,28.80
2023-05-07T09:58:16.054Z,28.30
2023-05-07T10:02:21.628Z,27.90
2023-05-07T10:06:27.681Z,28.20
2023-05-07T10:10:32.971Z,28.60
2023-05-07T10:14:40.057Z,28.20
2023-05-07T10:18:44.942Z,28.60
2023-05-07T10:22:49.781Z,28.10
2023-05-07T10:26:54.940Z,27.50
2023-05-07T10:31:13.366Z,27.40
2023-05-07T10:35:22.409Z,26.80
2023-05-07T10:39:26.919Z,26.00
2023-05-07T10:43:44.229Z,27.00
2023-05-07T10:48:25.043Z,28.10
2023-05-07T10:52:32.546Z,29.00
2023-05-07T10:56:35.655Z,29.80
2023-05-07T11:00:47.526Z,31.30
2023-05-07T11:05:23.160Z,32.40
2023-05-07T11:09:26.744Z,32.50
2023-05-07T11:13:49.543Z,31.40
2023-05-07T11:18:08.439Z,30.20
2023-05-07T11:22:42.144Z,28.90
2023-05-07T11:26:49.938Z,27.80
2023-05-07T11:30:55.709Z,27.40
2023-05-07T11:35:02.975Z,26.80
2023-05-07T11:39:07.921Z,26.70
2023-05-07T11:43:15.668Z,27.00
2023-05-07T11:47:23.994Z,27.10
2023-05-07T11:51:35.612Z,26.60
2023-05-07T11:55:40.539Z,26.30
2023-05-07T11:59:49.513Z,26.40
2023-05-07T12:03:57.300Z,26.40
2023-05-07T12:08:00.413Z,26.50
2023-05-07T12:12:07.718Z,25.90
2023-05-07T12:16:13.269Z,26.00
2023-05-07T12:20:18.938Z,25.90
2023-05-07T12:24:22.387Z,26.10
2023-05-07T12:28:26.824Z,26.10
2023-05-07T12:32:30.158Z,26.10
2023-05-07T12:36:39.719Z,26.20
2023-05-07T12:40:48.220Z,26.00
2023-05-07T12:44:55.043Z,25.50
2023-05-07T12:49:06.764Z,25.20
2023-05-07T12:53:17.859Z,25.30
2023-05-07T12:57:22.332Z,25.50
2023-05-07T13:01:31.427Z,25.60
2023-05-07T13:05:36.595Z,25.70
2023-05-07T13:09:39.602Z,26.00
2023-05-07T13:13:43.487Z,26.10
2023-05-07T13:17:49.288Z,26.30
2023-05-07T13:21:52.326Z,26.80
2023-05-07T13:25:56.948Z,27.10
2023-05-07T13:30:00.248Z,27.00
2023-05-07T13:34:04.952Z,27.30
2023-05-07T13:38:10.912Z,27.50
2023-05-07T13:42:13.960Z,28.10
2023-05-07T13:46:20.998Z,28.30
2023-05-07T13:50:27.843Z,28.60
2023-05-07T13:54:30.887Z,28.30
2023-05-07T13:58:52.095Z,28.10
2023-05-07T14:03:06.528Z,28.20
2023-05-07T14:07:11.376Z,28.50
2023-05-07T14:11:18.853Z,28.90
2023-05-07T14:15:22.083Z,29.40
2023-05-07T14:19:25.660Z,28.90
2023-05-07T14:23:31.616Z,28.30
2023-05-07T14:27:35.106Z,27.80
2023-05-07T14:31:45.714Z,28.10
2023-05-07T14:35:51.693Z,28.00
2023-05-07T14:39:56.205Z,27.70
2023-05-07T14:43:59.973Z,27.60
2023-05-07T14:48:04.987Z,28.20
2023-05-07T14:52:13.165Z,28.30
2023-05-07T14:56:19.614Z,27.90
2023-05-07T15:00:25.461Z,27.60
2023-05-07T15:04:32.287Z,26.70
2023-05-07T15:08:35.972Z,26.00
2023-05-07T15:12:41.170Z,25.40
2023-05-07T15:16:44.713Z,25.40
2023-05-07T15:20:47.806Z,25.20
2023-05-07T15:24:56.130Z,25.10
2023-05-07T15:29:08.468Z,25.30
2023-05-07T15:33:12.094Z,25.30
2023-05-07T15:37:17.458Z,25.40
2023-05-07T15:41:21.610Z,25.10
2023-05-07T15:45:26.614Z,24.80
2023-05-07T15:49:34.519Z,24.70
2023-05-07T15:53:37.649Z,24.40
2023-05-07T15:57:40.713Z,24.20
2023-05-07T16:01:47.805Z,24.00
2023-05-07T16:05:53.270Z,23.70
2023-05-07T16:09:56.362Z,23.40
2023-05-07T16:14:01.959Z,23.20
2023-05-07T16:18:06.776Z,23.10
2023-05-07T16:22:15.633Z,23.10
2023-05-07T16:26:22.234Z,23.00
2023-05-07T16:30:25.609Z,22.80
2023-05-07T16:34:32.326Z,22.80
2023-05-07T16:38:36.103Z,22.90
2023-05-07T16:42:39.428Z,23.20
2023-05-07T16:46:42.539Z,23.20
2023-05-07T16:50:49.835Z,23.20
2023-05-07T16:54:53.170Z,23.10
2023-05-07T16:58:56.679Z,22.90
2023-05-07T17:02:59.748Z,22.70
2023-05-07T17:07:04.255Z,22.40
2023-05-07T17:11:08.949Z,22.20
2023-05-07T17:15:15.589Z,22.10
2023-05-07T17:19:18.659Z,21.80
2023-05-07T17:23:27.142Z,21.50
2023-05-07T17:27:33.246Z,21.20
2023-05-07T17:31:36.293Z,21.00
2023-05-07T17:35:39.850Z,20.70
2023-05-07T17:39:44.455Z,20.50
2023-05-07T17:43:47.437Z,20.30
2023-05-07T17:47:52.934Z,20.10
2023-05-07T17:51:58.144Z,20.00
2023-05-07T17:56:04.814Z,19.80
2023-05-07T18:00:10.335Z,19.70
2023-05-07T18:04:13.668Z,19.60
2023-05-07T18:08:21.173Z,19.40
2023-05-07T18:12:27.584Z,19.30
2023-05-07T18:16:30.918Z,19.10
2023-05-07T18:20:33.976Z,19.00
2023-05-07T18:24:41.028Z,18.80
2023-05-07T18:28:47.028Z,18.60
2023-05-07T18:32:50.723Z,18.50
2023-05-07T18:36:54.080Z,18.30
2023-05-07T18:41:04.814Z,18.10
2023-05-07T18:45:10.124Z,17.90
2023-05-07T18:49:20.680Z,17.80
2023-05-07T18:53:23.921Z,17.70
2023-05-07T18:57:29.555Z,17.50
2023-05-07T19:01:38.313Z,17.40
2023-05-07T19:05:41.431Z,17.30
2023-05-07T19:09:57.053Z,17.20
2023-05-07T19:14:07.487Z,17.10
2023-05-07T19:18:13.140Z,17.00
2023-05-07T19:22:19.238Z,16.90
2023-05-07T19:26:25.377Z,16.80
2023-05-07T19:30:30.403Z,16.70
2023-05-07T19:34:38.798Z,16.70
2023-05-07T19:38:42.042Z,16.60
2023-05-07T19:42:45.053Z,16.50
2023-05-07T19:46:48.589Z,16.50
2023-05-07T19:50:52.958Z,16.40
2023-05-07T19:54:57.800Z,16.40
2023-05-07T19:59:04.008Z,16.30
2023-05-07T20:03:09.738Z,16.20
2023-05-07T20:07:17.224Z,16.20
2023-05-07T20:11:24.819Z,16.10
2023-05-07T20:15:28.154Z,16.10
2023-05-07T20:19:33.249Z,16.00
2023-05-07T20:23:38.201Z,15.90
2023-05-07T20:27:42.782Z,15.90
2023-05-07T20:31:47.395Z,15.80
2023-05-07T20:35:50.495Z,15.70
2023-05-07T20:39:57.564Z,15.70
2023-05-07T20:44:01.327Z,15.60
2023-05-07T20:48:04.637Z,15.50
2023-05-07T20:52:09.248Z,15.50
2023-05-07T20:56:13.686Z,15.40
2023-05-07T21:00:19.929Z,15.40
2023-05-07T21:04:24.606Z,15.30
2023-05-07T21:08:29.730Z,15.30
2023-05-07T21:12:34.715Z,15.20
2023-05-07T21:16:40.725Z,15.20
2023-05-07T21:20:44.039Z,15.10
2023-05-07T21:24:49.955Z,15.00
2023-05-07T21:28:56.871Z,15.00
2023-05-07T21:32:59.987Z,14.90
2023-05-07T21:37:06.010Z,14.90
2023-05-07T21:41:09.025Z,14.80
2023-05-07T21:45:17.175Z,14.70
2023-05-07T21:49:22.203Z,14.70
2023-05-07T21:53:29.674Z,14.60
2023-05-07T21:57:33.285Z,14.50
2023-05-07T22:01:39.688Z,14.40
2023-05-07T22:05:44.184Z,14.40
2023-05-07T22:09:47.254Z,14.30
2023-05-07T22:13:52.549Z,14.30
2023-05-07T22:18:00.922Z,14.20
2023-05-07T22:22:03.942Z,14.20
2023-05-07T22:26:11.879Z,14.10
2023-05-07T22:30:18.935Z,14.10
2023-05-07T22:34:23.342Z,14.00
2023-05-07T22:38:26.413Z,13.90
2023-05-07T22:42:32.809Z,13.80
2023-05-07T22:46:36.064Z,13.80
2023-05-07T22:50:43.234Z,13.70
2023-05-07T22:54:46.236Z,13.70
2023-05-07T22:58:49.579Z,13.60
2023-05-07T23:02:55.093Z,13.60
2023-05-07T23:07:00.952Z,13.50
2023-05-07T23:11:03.955Z,13.40
2023-05-07T23:15:08.349Z,13.40
2023-05-07T23:19:11.920Z,13.30
2023-05-07T23:23:19.642Z,13.30
2023-05-07T23:27:22.872Z,13.20
2023-05-07T23:31:28.705Z,13.20
2023-05-07T23:35:32.048Z,13.10
2023-05-07T23:39:36.481Z,13.10
2023-05-07T23:43:39.536Z,13.00
2023-05-07T23:47:42.539Z,13.00
2023-05-07T23:51:45.732Z,12.90
2023-05-07T23:55:52.958Z,12.80
2023-05-07T23:59:56.129Z,12.80
